Time;durP1;ratioP1;P1;durP2;ratioP2;P2;SDS_P1;SDS_P2;PMS_P1;PMS_P2;Temp;Humidity;BMP_temperature;BMP_pressure;BME280_temperature;BME280_humidity;BME280_pressure;Samples;Min_cycle;Max_cycle;Signal;HPM_P1;HPM_P2
2023/07/02 00:02:18;;;;;;;7.97;3.60;;;17.50;1.00;;;;;;4984120;28;20474;-80
2023/07/02 00:05:28;;;;;;;4.83;3.40;;;17.60;1.00;;;;;;5003320;28;20410;-80
2023/07/02 00:07:54;;;;;;;3.90;3.40;;;17.60;1.00;;;;;;4993965;28;20518;-77
2023/07/02 00:10:20;;;;;;;9.13;3.43;;;17.60;1.00;;;;;;5011974;28;20515;-74
2023/07/02 00:12:47;;;;;;;4.00;3.37;;;17.60;1.00;;;;;;5012066;28;20194;-74
2023/07/02 00:15:13;;;;;;;5.60;3.43;;;;;;;;;;4996402;28;20184;-74
2023/07/02 00:17:57;;;;;;;6.67;3.40;;;17.50;1.00;;;;;;4992691;28;20943;-74
2023/07/02 00:20:22;;;;;;;9.53;3.30;;;17.50;1.00;;;;;;4996440;28;20426;-74
2023/07/02 00:23:06;;;;;;;4.90;3.30;;;17.50;1.00;;;;;;4988915;28;20487;-74
2023/07/02 00:25:38;;;;;;;4.97;3.60;;;17.50;1.00;;;;;;5003015;28;20171;-74
2023/07/02 00:28:04;;;;;;;3.67;3.37;;;17.50;1.00;;;;;;5004202;28;20439;-74
2023/07/02 00:30:29;;;;;;;10.23;3.90;;;17.50;1.00;;;;;;5012889;28;20435;-74
2023/07/02 00:32:55;;;;;;;8.27;3.50;;;17.50;1.00;;;;;;5014461;28;20207;-74
2023/07/02 00:35:23;;;;;;;8.07;3.70;;;17.40;1.00;;;;;;5000967;28;20181;-75
2023/07/02 00:37:53;;;;;;;5.67;3.73;;;17.30;1.00;;;;;;5003953;28;20437;-74
2023/07/02 00:40:23;;;;;;;8.70;3.20;;;17.30;1.00;;;;;;5009914;28;20780;-75
2023/07/02 00:42:59;;;;;;;7.60;3.53;;;17.20;1.00;;;;;;5000476;28;20459;-74
2023/07/02 00:45:27;;;;;;;7.27;3.27;;;17.20;1.00;;;;;;4998775;28;20881;-74
2023/07/02 00:48:11;;;;;;;10.23;2.90;;;17.00;1.00;;;;;;5008086;28;20512;-74
2023/07/02 00:50:47;;;;;;;6.50;3.13;;;17.00;1.00;;;;;;5001117;28;20413;-74
2023/07/02 00:56:50;;;;;;;4.13;3.00;;;16.80;1.00;;;;;;5017653;28;20893;-80
2023/07/02 01:02:38;;;;;;;5.87;2.93;;;16.50;1.00;;;;;;4994301;28;20477;-80
2023/07/02 01:05:04;;;;;;;5.40;3.47;;;16.50;1.00;;;;;;4996528;28;20432;-80
2023/07/02 01:10:52;;;;;;;3.77;2.73;;;16.50;1.00;;;;;;5005677;28;20819;-74
2023/07/02 01:13:21;;;;;;;3.80;3.03;;;16.40;1.00;;;;;;5008042;28;20437;-74
2023/07/02 01:15:48;;;;;;;14.33;2.80;;;16.40;1.00;;;;;;5006687;28;20424;-74
2023/07/02 01:18:24;;;;;;;6.30;2.50;;;16.40;1.00;;;;;;5001081;28;20444;-75
2023/07/02 01:20:50;;;;;;;12.03;2.70;;;16.40;1.00;;;;;;4997358;28;20505;-74
2023/07/02 01:23:17;;;;;;;17.17;3.37;;;16.40;1.00;;;;;;5003949;28;20491;-74
2023/07/02 01:25:45;;;;;;;6.37;3.33;;;16.30;1.00;;;;;;4998119;28;20406;-74
2023/07/02 01:28:17;;;;;;;8.03;3.60;;;16.30;1.00;;;;;;5003065;28;20455;-74
2023/07/02 01:30:47;;;;;;;8.67;3.03;;;16.20;1.00;;;;;;5003526;28;20916;-74
2023/07/02 01:33:13;;;;;;;8.10;2.70;;;16.20;1.00;;;;;;4995390;28;20945;-75
2023/07/02 01:35:38;;;;;;;7.67;3.00;;;16.10;1.00;;;;;;4996896;28;20445;-74
2023/07/02 01:38:04;;;;;;;10.50;3.40;;;16.00;1.00;;;;;;5010011;28;20198;-74
2023/07/02 01:40:35;;;;;;;8.53;2.93;;;15.90;1.00;;;;;;4991074;28;20182;-74
2023/07/02 01:43:05;;;;;;;11.23;3.17;;;15.80;1.00;;;;;;5008643;28;20202;-74
2023/07/02 01:45:31;;;;;;;5.53;3.40;;;15.80;1.00;;;;;;4995931;28;20513;-74
2023/07/02 01:47:57;;;;;;;3.07;2.77;;;;;;;;;;5000570;28;20525;-74
2023/07/02 01:50:29;;;;;;;6.10;3.20;;;15.70;1.00;;;;;;5008987;28;20185;-74
2023/07/02 01:52:59;;;;;;;5.13;3.30;;;15.60;1.00;;;;;;4997846;28;20415;-74
2023/07/02 01:55:41;;;;;;;16.93;3.37;;;15.60;1.00;;;;;;5016792;28;20413;-80
2023/07/02 02:05:35;;;;;;;7.10;2.80;;;15.20;1.00;;;;;;4997899;28;20988;-80
2023/07/02 02:11:23;;;;;;;7.43;2.80;;;15.00;1.00;;;;;;5006342;28;20387;-74
2023/07/02 02:13:49;;;;;;;4.50;3.47;;;14.90;1.00;;;;;;5001693;28;20416;-74
2023/07/02 02:16:15;;;;;;;4.60;3.50;;;14.80;1.00;;;;;;5010542;28;20925;-74
2023/07/02 02:18:59;;;;;;;4.77;2.90;;;14.80;1.00;;;;;;5014241;28;20181;-74
2023/07/02 02:21:26;;;;;;;5.47;3.70;;;14.70;1.00;;;;;;5008813;28;20435;-74
2023/07/02 02:24:07;;;;;;;10.13;3.50;;;14.70;1.00;;;;;;5010894;28;20425;-74
2023/07/02 02:26:35;;;;;;;4.10;3.37;;;14.70;1.00;;;;;;4997392;28;20400;-80
2023/07/02 02:29:01;;;;;;;5.90;3.20;;;14.70;1.00;;;;;;4989117;28;20417;-80
2023/07/02 02:34:48;;;;;;;3.37;3.00;;;14.70;1.00;;;;;;5013761;28;20455;-80
2023/07/02 02:37:29;;;;;;;6.23;3.43;;;15.30;1.00;;;;;;4998738;28;20895;-80
2023/07/02 02:39:59;;;;;;;6.07;3.03;;;14.70;1.00;;;;;;4982127;28;20185;-74
2023/07/02 02:42:29;;;;;;;4.80;3.13;;;14.70;1.00;;;;;;5002051;28;20936;-74
2023/07/02 02:44:59;;;;;;;7.87;3.10;;;14.80;1.00;;;;;;5009199;28;20465;-74
2023/07/02 02:47:29;;;;;;;4.43;2.77;;;14.80;1.00;;;;;;5004387;28;20376;-74
2023/07/02 02:49:54;;;;;;;5.60;3.27;;;14.80;1.00;;;;;;4995654;28;20904;-74
2023/07/02 02:55:47;;;;;;;5.23;2.90;;;14.90;1.00;;;;;;4976705;28;20193;-81
2023/07/02 03:01:35;;;;;;;6.00;2.87;;;15.00;1.00;;;;;;4989471;28;20443;-80
2023/07/02 03:07:22;;;;;;;8.13;3.50;;;15.10;1.00;;;;;;5001824;28;20255;-80
2023/07/02 03:13:10;;;;;;;3.37;3.07;;;15.10;1.00;;;;;;4988256;28;20196;-80
2023/07/02 03:18:58;;;;;;;5.87;3.40;;;15.30;1.00;;;;;;5012465;28;20235;-80
2023/07/02 03:28:35;;;;;;;10.57;4.03;;;15.40;1.00;;;;;;5002638;28;20449;-84
2023/07/02 03:31:47;;;;;;;7.13;3.60;;;15.30;1.00;;;;;;5000364;28;20407;-85
2023/07/02 03:37:34;;;;;;;5.53;3.50;;;15.40;1.00;;;;;;4981869;28;20408;-85
2023/07/02 03:39:59;;;;;;;11.43;3.70;;;15.50;1.00;;;;;;5006414;28;20487;-84
2023/07/02 03:49:29;;;;;;;8.77;3.60;;;15.50;1.00;;;;;;5002435;28;20509;-84
2023/07/02 03:52:11;;;;;;;6.40;3.67;;;15.50;1.00;;;;;;4990315;28;21041;-84
2023/07/02 03:55:05;;;;;;;7.70;3.60;;;15.50;1.00;;;;;;4990747;28;20467;-85
2023/07/02 04:01:34;;;;;;;7.23;3.40;;;15.70;1.00;;;;;;4989672;28;20422;-79
2023/07/02 04:07:22;;;;;;;5.87;3.50;;;15.80;1.00;;;;;;4998001;28;20900;-80
2023/07/02 04:19:55;;;;;;;11.13;3.57;;;15.70;1.00;;;;;;4992292;28;20408;-85
2023/07/02 04:22:46;;;;;;;8.97;4.13;;;15.70;1.00;;;;;;5007379;28;20460;-84
2023/07/02 04:25:52;;;;;;;10.00;3.70;;;15.70;1.00;;;;;;5004436;28;20432;-85
2023/07/02 04:28:58;;;;;;;8.00;4.30;;;15.70;1.00;;;;;;4997217;28;20458;-80
2023/07/02 04:32:16;;;;;;;7.40;4.00;;;15.80;1.00;;;;;;5002370;28;20407;-80
2023/07/02 04:34:47;;;;;;;11.07;4.30;;;15.90;1.00;;;;;;5002537;28;20411;-81
2023/07/02 04:37:17;;;;;;;10.27;3.80;;;16.00;1.00;;;;;;5013620;28;20918;-80
2023/07/02 04:40:28;;;;;;;12.40;4.63;;;16.00;1.00;;;;;;5002617;28;20421;-80
2023/07/02 04:43:47;;;;;;;7.37;4.20;;;16.10;1.00;;;;;;5011877;28;20467;-85
2023/07/02 04:46:13;;;;;;;7.57;4.17;;;16.10;1.00;;;;;;5003172;28;20450;-85
2023/07/02 04:48:41;;;;;;;7.30;3.87;;;16.20;1.00;;;;;;5001939;28;20441;-85
2023/07/02 04:54:35;;;;;;;10.67;4.73;;;16.40;1.00;;;;;;5006484;28;20447;-85
2023/07/02 04:57:29;;;;;;;11.90;4.87;;;16.40;1.00;;;;;;4994790;28;20408;-80
2023/07/02 05:00:35;;;;;;;10.43;5.27;;;16.40;1.00;;;;;;4994520;28;20922;-81
2023/07/02 05:06:22;;;;;;;11.57;5.00;;;16.50;1.00;;;;;;4998225;28;20409;-81
2023/07/02 05:08:47;;;;;;;14.07;4.90;;;16.50;1.00;;;;;;5004300;28;20443;-80
2023/07/02 05:14:35;;;;;;;11.50;5.10;;;16.50;1.00;;;;;;5002275;28;20240;-85
2023/07/02 05:17:36;;;;;;;8.90;4.37;;;16.50;1.00;;;;;;4997062;28;20418;-86
2023/07/02 05:20:17;;;;;;;6.57;4.20;;;16.50;1.00;;;;;;4996797;28;20234;-85
2023/07/02 05:22:47;;;;;;;10.10;4.70;;;16.50;1.00;;;;;;4980573;28;20454;-85
2023/07/02 05:28:34;;;;;;;12.83;4.97;;;16.60;1.00;;;;;;5005592;28;20425;-81
2023/07/02 05:34:22;;;;;;;16.50;4.67;;;16.70;1.00;;;;;;4996741;28;20265;-80
2023/07/02 05:43:31;;;;;;;11.83;5.37;;;17.20;1.00;;;;;;4992776;28;20406;-80
2023/07/02 05:53:31;;;;;;;14.27;5.00;;;17.30;1.00;;;;;;5002568;28;20969;-81
2023/07/02 05:56:23;;;;;;;8.73;4.30;;;17.40;1.00;;;;;;5006397;28;20474;-80
2023/07/02 05:59:12;;;;;;;9.73;5.10;;;17.40;1.00;;;;;;4996460;28;20425;-80
2023/07/02 06:08:21;;;;;;;10.13;5.60;;;17.40;1.00;;;;;;4989488;28;20450;-81
2023/07/02 06:10:53;;;;;;;13.10;6.27;;;17.10;1.00;;;;;;5001558;28;20433;-80
2023/07/02 06:20:07;;;;;;;12.27;5.37;;;17.00;1.00;;;;;;5002305;28;20415;-80
2023/07/02 06:26:19;;;;;;;13.23;6.40;;;17.10;1.00;;;;;;4996510;28;20427;-83
2023/07/02 06:28:45;;;;;;;8.27;5.77;;;17.10;1.00;;;;;;4990210;28;20406;-80
2023/07/02 06:31:23;;;;;;;14.53;6.27;;;17.00;1.00;;;;;;4998034;28;20438;-81
2023/07/02 06:37:10;;;;;;;19.30;6.30;;;17.30;1.00;;;;;;5004098;28;20444;-81
2023/07/02 06:42:58;;;;;;;15.13;6.40;;;17.70;1.00;;;;;;5005501;28;20222;-81
2023/07/02 06:45:53;;;;;;;12.23;5.97;;;17.60;1.00;;;;;;4996385;28;20427;-82
2023/07/02 06:48:35;;;;;;;13.17;6.57;;;17.80;1.00;;;;;;5019472;28;20588;-82
2023/07/02 06:57:45;;;;;;;14.30;7.00;;;18.40;1.00;;;;;;4992775;28;20485;-85
2023/07/02 07:00:23;;;;;;;22.50;6.93;;;18.40;1.00;;;;;;4989873;28;21002;-86
2023/07/02 07:03:23;;;;;;;14.63;7.47;;;18.20;1.00;;;;;;5007986;28;20426;-87
2023/07/02 07:09:10;;;;;;;15.40;7.30;;;18.30;1.00;;;;;;4990927;28;20791;-87
2023/07/02 07:14:58;;;;;;;19.03;7.20;;;18.80;1.00;;;;;;4994171;28;20411;-82
2023/07/02 07:17:47;;;;;;;16.40;7.80;;;18.80;1.00;;;;;;4993963;28;20399;-82
2023/07/02 07:20:52;;;;;;;15.90;7.60;;;19.10;1.00;;;;;;4996284;28;20184;-82
2023/07/02 07:26:41;;;;;;;17.70;7.67;;;20.00;1.00;;;;;;5001216;28;20781;-82
2023/07/02 07:29:52;;;;;;;16.10;7.40;;;20.30;1.00;;;;;;5001514;28;20986;-82
2023/07/02 07:32:23;;;;;;;18.10;8.33;;;;;;;;;;4993464;28;20510;-82
2023/07/02 07:34:53;;;;;;;21.73;8.57;;;;;;;;;;5008920;28;20845;-82
2023/07/02 07:41:00;;;;;;;20.10;8.90;;;20.50;1.00;;;;;;5008583;28;20475;-82
2023/07/02 07:46:53;;;;;;;22.43;10.07;;;21.00;1.00;;;;;;4988417;28;20432;-81
2023/07/02 07:49:23;;;;;;;18.80;9.33;;;20.90;1.00;;;;;;5011552;28;20421;-81
2023/07/02 07:52:23;;;;;;;15.00;8.83;;;21.20;1.00;;;;;;5003781;28;20428;-82
2023/07/02 07:55:11;;;;;;;21.63;9.03;;;21.20;1.00;;;;;;4996785;28;20437;-82
2023/07/02 07:57:47;;;;;;;18.10;9.53;;;21.30;1.00;;;;;;4990696;28;20439;-82
2023/07/02 08:00:53;;;;;;;18.30;8.40;;;21.30;1.00;;;;;;4982173;28;20514;-82
2023/07/02 08:06:54;;;;;;;16.00;8.70;;;21.60;1.00;;;;;;5006650;28;20425;-81
2023/07/02 08:09:20;;;;;;;17.60;8.87;;;21.50;1.00;;;;;;5004196;28;20439;-82
2023/07/02 08:12:05;;;;;;;20.73;10.10;;;21.40;1.00;;;;;;4996623;28;20883;-82
2023/07/02 08:15:05;;;;;;;21.13;9.47;;;21.50;1.00;;;;;;5001028;28;20457;-86
2023/07/02 08:18:22;;;;;;;20.53;9.00;;;21.10;1.00;;;;;;4984426;28;20427;-87
2023/07/02 08:21:23;;;;;;;21.50;9.70;;;21.10;1.00;;;;;;5004818;28;20433;-87
2023/07/02 08:30:33;;;;;;;23.27;9.33;;;21.00;1.00;;;;;;5005679;28;20909;-86
2023/07/02 08:33:29;;;;;;;22.10;8.80;;;21.20;1.00;;;;;;5010811;28;20430;-87
2023/07/02 08:39:53;;;;;;;18.20;9.07;;;21.30;1.00;;;;;;5014373;28;20444;-87
2023/07/02 08:45:44;;;;;;;22.80;9.53;;;21.60;1.00;;;;;;4990659;28;20455;-87
2023/07/02 08:48:26;;;;;;;15.17;9.20;;;21.90;1.00;;;;;;5008223;28;21000;-88
2023/07/02 08:51:23;;;;;;;19.90;8.70;;;21.90;1.00;;;;;;5003417;28;20455;-87
2023/07/02 08:54:23;;;;;;;17.40;8.80;;;22.20;1.00;;;;;;4999894;28;20439;-87
2023/07/02 08:57:05;;;;;;;19.30;9.27;;;22.50;1.00;;;;;;4985595;28;20426;-87
2023/07/02 08:59:53;;;;;;;16.23;8.03;;;22.40;1.00;;;;;;4995737;28;21005;-87
2023/07/02 09:02:38;;;;;;;21.97;8.63;;;22.60;1.00;;;;;;4998802;28;20448;-82
2023/07/02 09:06:01;;;;;;;17.93;8.33;;;22.60;1.00;;;;;;4995146;28;20517;-82
2023/07/02 09:11:49;;;;;;;26.13;7.87;;;22.50;1.00;;;;;;4998209;28;20439;-82
2023/07/02 09:14:59;;;;;;;19.17;8.47;;;22.90;1.00;;;;;;4992246;28;20428;-82
2023/07/02 09:17:53;;;;;;;20.50;8.80;;;23.10;1.00;;;;;;4979357;28;21047;-81
2023/07/02 09:20:32;;;;;;;17.70;8.67;;;23.90;1.00;;;;;;5002255;28;20533;-82
2023/07/02 09:23:54;;;;;;;12.50;8.40;;;24.10;1.00;;;;;;4994535;28;20479;-82
2023/07/02 09:26:21;;;;;;;19.03;8.17;;;24.00;1.00;;;;;;4981770;28;20423;-82
2023/07/02 09:29:01;;;;;;;16.70;8.70;;;23.90;1.00;;;;;;5004654;28;20920;-82
2023/07/02 09:32:17;;;;;;;18.70;8.40;;;24.00;1.00;;;;;;4993572;28;20893;-81
2023/07/02 09:35:23;;;;;;;17.53;7.97;;;23.70;1.00;;;;;;5001123;28;20438;-81
2023/07/02 09:38:23;;;;;;;24.07;8.37;;;23.70;1.00;;;;;;4969665;28;20443;-81
2023/07/02 09:41:23;;;;;;;13.63;7.93;;;23.60;1.00;;;;;;4994996;28;20443;-82
2023/07/02 09:44:26;;;;;;;14.87;7.70;;;23.60;1.00;;;;;;4994255;28;20415;-81
2023/07/02 09:47:03;;;;;;;16.23;8.90;;;23.70;1.00;;;;;;5003915;28;20426;-82
2023/07/02 09:49:48;;;;;;;21.67;8.10;;;23.80;1.00;;;;;;4996076;28;20475;-81
2023/07/02 09:52:17;;;;;;;17.77;8.30;;;23.30;1.00;;;;;;5008016;28;20953;-81
2023/07/02 09:54:45;;;;;;;13.83;7.50;;;23.00;1.00;;;;;;5011171;28;20418;-81
2023/07/02 09:57:53;;;;;;;28.03;7.93;;;22.80;1.00;;;;;;4995945;28;20427;-81
2023/07/02 10:00:24;;;;;;;14.93;7.63;;;22.70;1.00;;;;;;5001737;28;20437;-82
2023/07/02 10:03:05;;;;;;;18.10;8.50;;;22.90;1.00;;;;;;5015598;28;21048;-81
2023/07/02 10:06:02;;;;;;;19.20;8.10;;;22.80;1.00;;;;;;5003532;28;20422;-81
2023/07/02 10:08:53;;;;;;;12.00;7.67;;;22.90;1.00;;;;;;4993152;28;20501;-81
2023/07/02 10:11:36;;;;;;;17.17;6.97;;;23.60;1.00;;;;;;4997663;28;20427;-82
2023/07/02 10:14:23;;;;;;;11.90;6.00;;;23.60;1.00;;;;;;5005891;28;20462;-81
2023/07/02 10:16:55;;;;;;;11.90;6.70;;;23.50;1.00;;;;;;4992770;28;20399;-81
2023/07/02 10:19:35;;;;;;;22.33;7.10;;;23.80;1.00;;;;;;4997403;28;20427;-81
2023/07/02 10:22:55;;;;;;;9.77;6.60;;;24.10;1.00;;;;;;4995236;28;20479;-80
2023/07/02 10:25:53;;;;;;;13.70;6.60;;;24.40;1.00;;;;;;4986226;28;20415;-82
2023/07/02 10:28:35;;;;;;;13.27;7.90;;;24.40;1.00;;;;;;5003662;28;20436;-81
2023/07/02 10:31:23;;;;;;;14.10;8.00;;;24.20;1.00;;;;;;4996917;28;20946;-80
2023/07/02 10:34:05;;;;;;;15.53;7.60;;;24.20;1.00;;;;;;4991877;28;20448;-80
2023/07/02 10:36:53;;;;;;;12.73;7.33;;;24.10;1.00;;;;;;4993109;28;20435;-80
2023/07/02 10:39:23;;;;;;;17.00;8.80;;;23.80;1.00;;;;;;4982061;28;20435;-81
2023/07/02 10:42:11;;;;;;;11.13;7.27;;;23.90;1.00;;;;;;4994191;28;20508;-82
2023/07/02 10:45:23;;;;;;;16.37;8.00;;;24.00;1.00;;;;;;4982110;28;20427;-81
2023/07/02 10:47:53;;;;;;;17.90;7.50;;;24.10;1.00;;;;;;4988974;28;20439;-87
2023/07/02 10:50:23;;;;;;;15.47;7.33;;;24.10;1.00;;;;;;4965654;28;20909;-84
2023/07/02 10:52:54;;;;;;;12.77;7.37;;;24.20;1.00;;;;;;4973394;28;20888;-87
2023/07/02 10:55:35;;;;;;;14.53;7.80;;;24.60;1.00;;;;;;4978212;28;20504;-85
2023/07/02 10:58:23;;;;;;;15.10;7.73;;;24.90;1.00;;;;;;4993955;28;20424;-85
2023/07/02 11:00:53;;;;;;;15.77;7.37;;;24.90;1.00;;;;;;4991671;28;20444;-85
2023/07/02 11:03:55;;;;;;;20.00;7.20;;;24.90;1.00;;;;;;5002489;28;20473;-84
2023/07/02 11:06:23;;;;;;;14.47;7.47;;;24.90;1.00;;;;;;4993482;28;20932;-85
2023/07/02 11:09:16;;;;;;;14.63;8.03;;;25.20;1.00;;;;;;5009801;28;20480;-85
2023/07/02 11:12:05;;;;;;;13.37;7.27;;;25.10;1.00;;;;;;4990977;28;20449;-81
2023/07/02 11:17:53;;;;;;;16.87;8.70;;;24.60;1.00;;;;;;4990322;28;20466;-85
2023/07/02 11:20:33;;;;;;;13.47;7.77;;;24.60;1.00;;;;;;5006519;28;20870;-82
2023/07/02 11:22:59;;;;;;;14.20;8.20;;;24.60;1.00;;;;;;5001385;28;20463;-82
2023/07/02 11:25:35;;;;;;;13.30;8.00;;;24.50;1.00;;;;;;4993551;28;20484;-82
2023/07/02 11:28:35;;;;;;;14.97;7.87;;;24.50;1.00;;;;;;4995346;28;20646;-84
2023/07/02 11:31:26;;;;;;;19.33;8.63;;;24.40;1.00;;;;;;4994341;28;20433;-83
2023/07/02 11:33:54;;;;;;;14.60;7.97;;;24.70;1.00;;;;;;5002490;28;20466;-85
2023/07/02 11:36:24;;;;;;;17.30;8.40;;;24.50;1.00;;;;;;4994915;28;20833;-86
2023/07/02 11:38:55;;;;;;;20.83;8.67;;;24.50;1.00;;;;;;5007179;28;20430;-87
2023/07/02 11:44:53;;;;;;;18.97;9.10;;;24.20;1.00;;;;;;5007592;28;21019;-89
2023/07/02 11:47:24;;;;;;;16.20;8.20;;;24.20;1.00;;;;;;5003530;28;20434;-90
2023/07/02 11:49:56;;;;;;;17.50;8.20;;;24.60;1.00;;;;;;4990422;28;20423;-84
2023/07/02 11:52:23;;;;;;;16.13;8.60;;;24.90;1.00;;;;;;4982940;28;20429;-82
2023/07/02 11:54:53;;;;;;;15.30;9.40;;;25.10;1.00;;;;;;5001720;28;20437;-82
2023/07/02 11:57:23;;;;;;;15.93;8.97;;;24.90;1.00;;;;;;5012313;28;20442;-84
2023/07/02 12:00:06;;;;;;;18.27;9.10;;;24.80;1.00;;;;;;5010112;28;20950;-84
2023/07/02 12:02:53;;;;;;;17.10;9.23;;;24.80;1.00;;;;;;4996021;28;20535;-83
2023/07/02 12:05:23;;;;;;;16.23;8.30;;;24.80;1.00;;;;;;4996308;28;20868;-86
2023/07/02 12:07:53;;;;;;;13.80;8.77;;;24.80;1.00;;;;;;4993721;28;20915;-84
2023/07/02 12:10:19;;;;;;;16.00;9.07;;;25.00;1.00;;;;;;4999695;28;20457;-85
2023/07/02 12:13:23;;;;;;;19.53;9.03;;;24.90;1.00;;;;;;5006321;28;20415;-86
2023/07/02 12:15:53;;;;;;;21.30;9.27;;;24.90;1.00;;;;;;5003589;28;20285;-86
2023/07/02 12:18:23;;;;;;;16.73;9.43;;;25.00;1.00;;;;;;4993597;28;20486;-86
2023/07/02 12:21:05;;;;;;;16.17;9.00;;;24.50;1.00;;;;;;4997316;28;20949;-82
2023/07/02 12:23:35;;;;;;;19.50;8.93;;;24.50;1.00;;;;;;4992847;28;20471;-82
2023/07/02 12:26:20;;;;;;;22.03;9.93;;;24.60;1.00;;;;;;5007067;28;20425;-81
2023/07/02 12:28:53;;;;;;;16.93;9.40;;;24.60;1.00;;;;;;4979902;28;20472;-82
2023/07/02 12:31:19;;;;;;;18.60;9.60;;;24.50;1.00;;;;;;5011736;28;20517;-81
2023/07/02 12:33:53;;;;;;;16.30;8.73;;;25.00;1.00;;;;;;4999676;28;20499;-82
2023/07/02 12:36:24;;;;;;;19.00;8.93;;;25.50;1.00;;;;;;5007966;28;20431;-86
2023/07/02 12:38:53;;;;;;;14.80;8.37;;;25.50;1.00;;;;;;4994126;28;20486;-87
2023/07/02 12:41:23;;;;;;;14.60;8.47;;;25.30;1.00;;;;;;5011708;28;20430;-85
2023/07/02 12:44:05;;;;;;;15.83;8.60;;;25.50;1.00;;;;;;4990204;28;20514;-85
2023/07/02 12:47:05;;;;;;;16.20;7.90;;;25.50;1.00;;;;;;4974403;28;20420;-86
2023/07/02 12:49:35;;;;;;;17.63;8.73;;;25.80;1.00;;;;;;4994014;28;20982;-86
2023/07/02 12:52:05;;;;;;;15.87;8.97;;;25.50;1.00;;;;;;5013182;28;20430;-87
2023/07/02 12:54:35;;;;;;;15.97;7.90;;;25.40;1.00;;;;;;5020790;28;20519;-88
2023/07/02 12:57:23;;;;;;;15.47;8.40;;;25.60;1.00;;;;;;4993070;28;20470;-89
2023/07/02 12:59:49;;;;;;;14.50;7.87;;;25.20;1.00;;;;;;4991390;28;20504;-73
2023/07/02 13:02:17;;;;;;;13.83;8.17;;;25.50;1.00;;;;;;4990302;28;21039;-74
2023/07/02 13:04:43;;;;;;;13.00;7.23;;;25.50;1.00;;;;;;4999305;28;20322;-74
2023/07/02 13:07:12;;;;;;;16.90;8.40;;;25.50;1.00;;;;;;4993991;28;20884;-75
2023/07/02 13:09:41;;;;;;;17.83;8.23;;;25.40;1.00;;;;;;4993330;28;20196;-74
2023/07/02 13:12:12;;;;;;;14.90;8.40;;;25.30;1.00;;;;;;4995261;28;20763;-75
2023/07/02 13:14:42;;;;;;;13.80;7.60;;;25.30;1.00;;;;;;4993538;28;20410;-75
2023/07/02 13:17:08;;;;;;;25.43;8.27;;;25.40;1.00;;;;;;4981334;28;20920;-76
2023/07/02 13:19:35;;;;;;;18.90;8.50;;;25.50;1.00;;;;;;4994580;28;20415;-75
2023/07/02 13:22:05;;;;;;;16.10;8.70;;;26.00;1.00;;;;;;5006462;28;20212;-74
2023/07/02 13:24:35;;;;;;;21.13;8.70;;;26.30;1.00;;;;;;4993919;28;20403;-75
2023/07/02 13:27:08;;;;;;;15.60;8.77;;;26.60;1.00;;;;;;4993363;28;20442;-74
2023/07/02 13:29:34;;;;;;;12.37;7.67;;;27.00;1.00;;;;;;4996791;28;20584;-75
2023/07/02 13:32:11;;;;;;;15.47;8.53;;;27.00;1.00;;;;;;4997502;28;20502;-74
2023/07/02 13:34:47;;;;;;;16.57;8.37;;;27.10;1.00;;;;;;5002375;28;20190;-74
2023/07/02 13:37:14;;;;;;;13.77;9.67;;;26.80;1.00;;;;;;5001918;28;20845;-74
2023/07/02 13:39:39;;;;;;;15.43;8.83;;;26.60;1.00;;;;;;5000711;28;20444;-74
2023/07/02 13:42:06;;;;;;;18.07;8.50;;;26.90;1.00;;;;;;4996433;28;20460;-74
2023/07/02 13:44:32;;;;;;;19.60;8.43;;;27.30;1.00;;;;;;5008545;28;20525;-75
2023/07/02 13:46:57;;;;;;;19.63;9.10;;;27.00;1.00;;;;;;5006393;28;20426;-75
2023/07/02 13:49:31;;;;;;;17.90;8.43;;;27.10;1.00;;;;;;4998471;28;20416;-75
2023/07/02 13:51:57;;;;;;;17.97;9.50;;;27.40;1.00;;;;;;5013780;28;20188;-75
2023/07/02 13:54:23;;;;;;;16.40;9.10;;;27.40;1.00;;;;;;4995219;28;20438;-74
2023/07/02 13:56:48;;;;;;;17.63;9.13;;;27.60;1.00;;;;;;5006945;28;20180;-74
2023/07/02 13:59:19;;;;;;;20.67;9.67;;;27.40;1.00;;;;;;5012634;28;20182;-75
2023/07/02 14:01:48;;;;;;;20.47;9.07;;;26.80;1.00;;;;;;4999983;28;20248;-74
2023/07/02 14:04:15;;;;;;;13.30;8.60;;;26.40;1.00;;;;;;4999958;28;20420;-75
2023/07/02 14:07:05;;;;;;;16.27;7.90;;;26.20;1.00;;;;;;4995574;28;20516;-81
2023/07/02 14:09:37;;;;;;;17.10;9.60;;;26.10;1.00;;;;;;4976747;28;20431;-81
2023/07/02 14:12:03;;;;;;;19.67;9.63;;;25.70;1.00;;;;;;5005464;28;20491;-81
2023/07/02 14:14:35;;;;;;;23.87;9.83;;;25.60;1.00;;;;;;5005083;28;20429;-81
2023/07/02 14:17:05;;;;;;;20.13;9.37;;;26.10;1.00;;;;;;5016036;28;20891;-81
2023/07/02 14:19:35;;;;;;;16.17;9.53;;;26.10;1.00;;;;;;5005487;28;20408;-81
2023/07/02 14:22:35;;;;;;;19.00;9.53;;;26.10;1.00;;;;;;5009449;28;20450;-81
2023/07/02 14:25:05;;;;;;;22.37;9.60;;;25.80;1.00;;;;;;4997374;28;20480;-81
2023/07/02 14:28:05;;;;;;;16.90;9.00;;;26.10;1.00;;;;;;4996225;28;20459;-81
2023/07/02 14:30:36;;;;;;;19.57;9.83;;;26.40;1.00;;;;;;4983158;28;20437;-81
2023/07/02 14:33:23;;;;;;;22.30;9.77;;;26.50;1.00;;;;;;5006649;28;20775;-81
2023/07/02 14:36:06;;;;;;;15.37;9.20;;;26.70;1.00;;;;;;5004213;28;20452;-77
2023/07/02 14:38:35;;;;;;;23.97;9.30;;;27.00;1.00;;;;;;4995716;28;20815;-81
2023/07/02 14:41:35;;;;;;;18.90;9.17;;;27.20;1.00;;;;;;4999571;28;20424;-81
2023/07/02 14:44:05;;;;;;;24.93;10.20;;;27.40;1.00;;;;;;4995581;28;20423;-81
2023/07/02 14:46:35;;;;;;;19.27;9.63;;;27.70;1.00;;;;;;4993939;28;20759;-81
2023/07/02 14:52:23;;;;;;;18.23;9.40;;;28.30;1.00;;;;;;5002210;28;20404;-81
2023/07/02 14:58:48;;;;;;;21.57;10.70;;;28.10;1.00;;;;;;4986579;28;20463;-84
2023/07/02 15:04:36;;;;;;;18.90;10.93;;;28.30;1.00;;;;;;5006962;28;20442;-89
2023/07/02 15:13:59;;;;;;;18.57;9.93;;;27.90;1.00;;;;;;4976288;28;20476;-86
2023/07/02 15:17:05;;;;;;;20.47;10.27;;;27.80;1.00;;;;;;4990174;28;20431;-86
2023/07/02 15:20:11;;;;;;;19.50;10.10;;;28.30;1.00;;;;;;4986901;28;20420;-88
2023/07/02 15:22:47;;;;;;;19.50;9.57;;;30.20;1.00;;;;;;5010743;28;20547;-83
2023/07/02 15:25:17;;;;;;;19.43;9.90;;;30.20;1.00;;;;;;4993459;28;20417;-83
2023/07/02 15:27:43;;;;;;;14.23;8.70;;;30.50;1.00;;;;;;4989735;28;20448;-84
2023/07/02 15:33:31;;;;;;;17.30;9.90;;;31.20;1.00;;;;;;5012662;28;20584;-83
2023/07/02 15:36:00;;;;;;;15.13;9.20;;;30.20;1.00;;;;;;4997403;28;20421;-81
2023/07/02 15:41:47;;;;;;;22.20;10.30;;;30.90;1.00;;;;;;5003829;28;20468;-87
2023/07/02 15:54:18;;;;;;;19.70;9.63;;;28.90;1.00;;;;;;4989706;28;20423;-86
2023/07/02 15:57:02;;;;;;;22.53;9.97;;;28.90;1.00;;;;;;5013836;28;20435;-87
2023/07/02 15:59:29;;;;;;;18.53;9.70;;;29.30;1.00;;;;;;4998681;28;20186;-84
2023/07/02 16:02:17;;;;;;;18.63;9.63;;;30.60;1.00;;;;;;4993666;28;20518;-85
2023/07/02 16:05:05;;;;;;;57.93;10.10;;;31.20;1.00;;;;;;4993743;28;20479;-87
2023/07/02 16:17:59;;;;;;;19.20;9.37;;;34.70;1.00;;;;;;4989224;28;20418;-87
2023/07/02 16:20:57;;;;;;;17.37;9.77;;;34.90;1.00;;;;;;4996982;28;20440;-86
2023/07/02 16:27:13;;;;;;;12.73;7.70;;;35.40;1.00;;;;;;5002897;28;20910;-87
2023/07/02 16:29:59;;;;;;;15.70;8.57;;;36.00;1.00;;;;;;4991244;28;20959;-87
2023/07/02 16:32:35;;;;;;;13.80;8.30;;;34.30;1.00;;;;;;4997319;28;20531;-87
2023/07/02 16:35:06;;;;;;;14.90;9.40;;;34.70;1.00;;;;;;4999565;28;20440;-87
2023/07/02 16:44:21;;;;;;;15.43;8.77;;;35.40;1.00;;;;;;4982273;28;20452;-86
2023/07/02 16:46:53;;;;;;;16.30;9.80;;;36.80;1.00;;;;;;4992677;28;20440;-86
2023/07/02 16:49:25;;;;;;;19.33;9.30;;;36.80;1.00;;;;;;4999723;28;20413;-85
2023/07/02 16:55:18;;;;;;;19.30;8.47;;;;;;;;;;4974850;28;20448;-88
2023/07/02 17:01:08;;;;;;;14.93;8.83;;;34.60;1.00;;;;;;4992186;28;21083;-87
2023/07/02 17:07:05;;;;;;;15.03;8.37;;;35.30;1.00;;;;;;5013719;28;20432;-88
2023/07/02 17:16:15;;;;;;;13.37;8.60;;;36.30;1.00;;;;;;4991452;28;20479;-86
2023/07/02 17:19:13;;;;;;;14.20;8.77;;;36.30;1.00;;;;;;5000004;28;20460;-85
2023/07/02 17:25:06;;;;;;;16.20;8.80;;;35.90;1.00;;;;;;4983875;28;20462;-86
2023/07/02 17:44:25;;;;;;;15.30;9.00;;;35.50;1.00;;;;;;5006525;28;21034;-92
2023/07/02 17:47:36;;;;;;;17.53;9.13;;;34.50;1.00;;;;;;4976893;28;20465;-92
2023/07/02 17:50:47;;;;;;;19.33;9.43;;;33.50;1.00;;;;;;5007179;28;20426;-91
2023/07/02 17:53:31;;;;;;;18.20;9.70;;;30.40;1.00;;;;;;4995539;28;20507;-91
2023/07/02 17:55:57;;;;;;;19.20;9.80;;;;;;;;;;4988047;28;20472;-91
2023/07/02 17:58:23;;;;;;;18.90;9.60;;;29.30;1.00;;;;;;4996971;28;21011;-92
2023/07/02 18:05:05;;;;;;;20.70;9.93;;;27.30;1.00;;;;;;4991156;28;20192;-86
2023/07/02 18:07:31;;;;;;;18.10;9.23;;;27.20;1.00;;;;;;5020641;28;20438;-86
2023/07/02 18:13:19;;;;;;;19.80;10.00;;;26.10;1.00;;;;;;5007689;28;20234;-83
2023/07/02 18:16:05;;;;;;;25.73;10.70;;;25.70;1.00;;;;;;4996228;28;20424;-84
2023/07/02 18:18:41;;;;;;;20.20;9.50;;;25.30;1.00;;;;;;5003410;28;20442;-84
2023/07/02 18:24:47;;;;;;;22.53;9.80;;;24.60;1.00;;;;;;4993802;28;20437;-84
2023/07/02 18:30:53;;;;;;;25.30;10.07;;;24.40;1.00;;;;;;4993955;28;20480;-84
2023/07/02 18:33:41;;;;;;;26.23;9.90;;;24.20;1.00;;;;;;5010454;28;20537;-85